Time;durP1;ratioP1;P1;durP2;ratioP2;P2;SDS_P1;SDS_P2;PMS_P1;PMS_P2;Temp;Humidity;BMP_temperature;BMP_pressure;BME280_temperature;BME280_humidity;BME280_pressure;Samples;Min_cycle;Max_cycle;Signal;HPM_P1;HPM_P2
2022/11/10 00:01:07;;;;;;;4.37;2.87;;;11.90;99.90;;;12.08;nan;101020.09;5012333;28;20946;-66
2022/11/10 00:03:36;;;;;;;2.10;2.00;;;11.90;99.90;;;12.15;nan;101017.88;4992945;28;20727;-67
2022/11/10 00:06:05;;;;;;;3.13;2.57;;;11.80;99.90;;;12.05;nan;101016.88;5008643;28;21231;-66
2022/11/10 00:08:32;;;;;;;3.03;2.33;;;11.80;99.90;;;12.05;nan;101022.94;5005796;28;20628;-65
2022/11/10 00:11:05;;;;;;;1.80;1.70;;;11.80;99.90;;;12.07;nan;101013.22;5010625;28;20704;-67
2022/11/10 00:16:59;;;;;;;2.37;1.67;;;11.70;99.90;;;12.05;nan;101020.31;4992922;28;20624;-66
2022/11/10 00:19:08;;;;;;;4.87;2.10;;;11.70;99.90;;;11.98;nan;101019.09;5010359;28;21033;-67
2022/11/10 00:21:36;;;;;;;1.67;1.67;;;11.70;99.90;;;11.98;nan;101020.88;5008271;28;20661;-67
2022/11/10 00:24:03;;;;;;;2.70;1.63;;;11.70;99.90;;;12.01;nan;101026.72;5011578;28;20743;-67
2022/11/10 00:26:30;;;;;;;1.73;1.63;;;11.70;99.90;;;12.02;nan;101024.94;5008113;28;21169;-67
2022/11/10 00:28:57;;;;;;;2.10;1.97;;;11.70;99.90;;;11.92;nan;101024.78;5010193;28;20610;-67
2022/11/10 00:31:27;;;;;;;2.00;1.90;;;11.70;99.90;;;12.01;nan;101016.25;5010789;28;20730;-68
2022/11/10 00:33:54;;;;;;;3.10;1.63;;;11.60;99.90;;;12.08;nan;101020.09;4994772;28;21013;-68
2022/11/10 00:36:21;;;;;;;3.00;1.70;;;11.70;99.90;;;12.05;nan;101025.53;5010208;28;21033;-66
2022/11/10 00:38:51;;;;;;;3.30;1.63;;;11.70;99.90;;;12.06;nan;101029.84;5005380;28;21062;-66
2022/11/10 00:41:19;;;;;;;1.60;1.50;;;11.70;99.90;;;12.06;nan;101029.00;5018474;28;20715;-65
2022/11/10 00:43:46;;;;;;;3.67;1.60;;;11.70;99.90;;;11.96;nan;101034.06;4982184;28;20674;-68
2022/11/10 00:46:14;;;;;;;2.83;1.40;;;11.70;99.90;;;12.04;nan;101042.19;5009445;28;21258;-68
2022/11/10 00:48:41;;;;;;;1.80;1.47;;;11.70;99.90;;;11.97;nan;101042.75;5010077;28;20613;-67
2022/11/10 00:51:26;;;;;;;6.10;1.70;;;11.60;99.90;;;11.94;nan;101041.19;5010904;28;20661;-69
2022/11/10 00:53:54;;;;;;;1.57;1.47;;;11.60;99.90;;;11.94;nan;101048.19;5010027;28;20699;-67
2022/11/10 00:56:22;;;;;;;1.53;1.43;;;11.60;99.90;;;11.90;nan;101052.81;5007997;28;21231;-67
2022/11/10 00:58:49;;;;;;;1.93;1.40;;;11.60;99.90;;;11.92;nan;101050.09;4989340;28;20611;-67
2022/11/10 01:01:19;;;;;;;1.53;1.33;;;11.60;99.90;;;11.93;nan;101065.66;4994106;28;20711;-67
2022/11/10 01:03:46;;;;;;;1.60;1.50;;;11.60;99.90;;;11.93;nan;101065.66;5011377;28;20666;-68
2022/11/10 01:06:15;;;;;;;1.30;1.20;;;11.60;99.90;;;11.89;nan;101074.66;5010181;28;20671;-67
2022/11/10 01:08:43;;;;;;;1.43;1.30;;;11.60;99.90;;;11.87;nan;101081.78;5008917;28;20618;-67
2022/11/10 01:11:15;;;;;;;1.87;1.70;;;11.60;99.90;;;11.87;nan;101094.84;5010303;28;20669;-67
2022/11/10 01:13:44;;;;;;;1.47;1.37;;;11.50;99.90;;;11.82;nan;101102.16;4988909;28;21059;-66
2022/11/10 01:16:16;;;;;;;2.70;1.70;;;11.50;99.90;;;11.85;nan;101114.19;4994165;28;20667;-66
2022/11/10 01:18:43;;;;;;;3.90;2.87;;;11.50;99.90;;;11.81;nan;101112.75;5009009;28;21094;-66
2022/11/10 01:21:10;;;;;;;8.30;4.90;;;11.50;99.90;;;11.75;nan;101115.78;5025324;28;20668;-65
2022/11/10 01:23:37;;;;;;;9.03;3.97;;;11.50;99.90;;;11.82;nan;101120.47;5004918;28;20673;-65
2022/11/10 01:26:06;;;;;;;2.10;2.00;;;11.50;99.90;;;11.73;nan;101123.75;5009868;28;20609;-65
2022/11/10 01:28:35;;;;;;;2.37;2.07;;;11.50;99.90;;;11.74;nan;101127.16;5007969;28;20637;-65
2022/11/10 01:31:14;;;;;;;1.73;1.63;;;11.40;99.90;;;11.71;nan;101125.63;5010663;28;20703;-66
2022/11/10 01:33:41;;;;;;;1.23;1.23;;;11.40;99.90;;;11.72;nan;101129.91;5012738;28;20647;-66
2022/11/10 01:36:09;;;;;;;1.30;1.10;;;11.40;99.90;;;11.61;nan;101129.75;5015292;28;20728;-66
2022/11/10 01:38:39;;;;;;;1.30;1.30;;;11.40;99.90;;;11.60;nan;101130.72;5012481;28;21332;-66
2022/11/10 01:41:09;;;;;;;5.77;1.30;;;11.30;99.90;;;11.61;nan;101132.38;4996914;28;20666;-66
2022/11/10 01:43:37;;;;;;;1.10;1.10;;;11.30;99.90;;;11.53;nan;101124.22;4995962;28;21299;-66
2022/11/10 01:46:10;;;;;;;1.27;1.27;;;11.30;99.90;;;11.59;nan;101129.03;5012869;28;20640;-66
2022/11/10 01:48:49;;;;;;;1.87;1.77;;;11.20;99.90;;;11.54;nan;101131.16;4998862;28;20668;-67
2022/11/10 01:51:36;;;;;;;1.50;1.40;;;11.30;99.90;;;11.59;nan;101140.34;5013901;22;20650;-68
2022/11/10 01:54:10;;;;;;;1.80;1.27;;;11.30;99.90;;;11.53;nan;101137.28;4975765;28;20642;-67
2022/11/10 01:56:47;;;;;;;1.60;1.50;;;11.20;99.90;;;11.50;nan;101148.78;4976815;28;20645;-68
2022/11/10 01:59:20;;;;;;;1.30;1.23;;;11.20;99.90;;;11.53;nan;101140.75;4979108;28;20638;-67
2022/11/10 02:01:49;;;;;;;1.30;1.23;;;11.20;99.90;;;11.46;nan;101147.31;4976848;28;20671;-68
2022/11/10 02:04:18;;;;;;;2.10;1.40;;;11.20;99.90;;;11.54;nan;101142.41;4969172;28;20666;-68
2022/11/10 02:06:47;;;;;;;1.03;1.00;;;11.20;99.90;;;11.59;nan;101144.72;4977238;28;20615;-68
2022/11/10 02:09:15;;;;;;;1.10;1.00;;;11.20;99.90;;;11.36;nan;101155.88;4994878;28;20990;-68
2022/11/10 02:11:43;;;;;;;1.00;0.97;;;11.20;99.90;;;11.47;nan;101151.63;4977889;28;20638;-68
2022/11/10 02:14:11;;;;;;;3.87;1.37;;;11.20;99.90;;;11.46;nan;101154.31;4959381;28;20642;-68
2022/11/10 02:16:39;;;;;;;3.37;1.30;;;11.10;99.90;;;11.21;nan;101149.91;4956465;28;20632;-68
2022/11/10 02:19:24;;;;;;;1.50;1.43;;;11.10;99.90;;;11.21;nan;101143.84;4940289;28;21253;-68
2022/11/10 02:21:51;;;;;;;1.13;1.13;;;11.00;99.90;;;11.20;nan;101142.19;4956508;28;20651;-68
2022/11/10 02:24:18;;;;;;;1.40;1.30;;;11.00;99.90;;;11.11;nan;101148.84;4958029;28;20709;-68
2022/11/10 02:26:52;;;;;;;1.70;1.60;;;10.90;99.90;;;11.04;nan;101155.41;4974077;28;21065;-68
2022/11/10 02:29:20;;;;;;;2.50;1.37;;;10.80;99.90;;;11.15;nan;101159.91;4957852;28;20618;-67
2022/11/10 02:31:47;;;;;;;3.03;2.10;;;10.80;99.90;;;11.03;nan;101174.59;4941337;28;20669;-67
2022/11/10 02:34:14;;;;;;;1.73;1.60;;;10.80;99.90;;;10.99;nan;101172.31;4957909;28;21345;-68
2022/11/10 02:36:41;;;;;;;4.20;1.83;;;10.80;99.90;;;11.01;nan;101167.84;4956669;28;20639;-68
2022/11/10 02:39:08;;;;;;;3.37;2.37;;;10.80;99.90;;;11.05;nan;101169.31;4974015;28;20829;-67
2022/11/10 02:41:35;;;;;;;2.03;1.53;;;10.80;99.90;;;11.06;nan;101170.97;4956504;28;20659;-68
2022/11/10 02:44:03;;;;;;;3.53;1.80;;;10.80;99.90;;;11.00;nan;101179.19;4956683;28;21012;-68
2022/11/10 02:46:30;;;;;;;3.40;2.40;;;10.70;99.90;;;10.92;nan;101179.72;4972957;28;20668;-68
2022/11/10 02:48:57;;;;;;;2.10;2.00;;;10.70;99.90;;;10.94;nan;101172.63;4961326;28;20697;-68
2022/11/10 02:51:24;;;;;;;3.40;1.97;;;10.70;99.90;;;10.97;nan;101184.63;4971366;28;21360;-68
2022/11/10 02:53:51;;;;;;;4.70;1.97;;;10.70;99.90;;;10.90;nan;101182.41;4976251;28;20660;-68
2022/11/10 02:56:18;;;;;;;2.83;2.00;;;10.70;99.90;;;11.00;nan;101176.59;4984599;28;20650;-68
2022/11/10 02:58:45;;;;;;;2.10;1.93;;;10.70;99.90;;;10.93;nan;101178.75;4976425;28;20640;-69
2022/11/10 03:01:12;;;;;;;4.70;2.03;;;10.70;99.90;;;10.97;nan;101182.84;4969011;28;20639;-68
2022/11/10 03:03:39;;;;;;;3.60;1.70;;;10.70;99.90;;;10.94;nan;101183.06;4974458;28;21223;-68
2022/11/10 03:06:06;;;;;;;1.73;1.53;;;10.70;99.90;;;10.87;nan;101182.63;4974469;28;20682;-68
2022/11/10 03:08:33;;;;;;;2.10;1.50;;;10.70;99.90;;;10.96;nan;101188.16;4972258;28;20693;-68
2022/11/10 03:11:00;;;;;;;4.70;1.40;;;10.60;99.90;;;10.99;nan;101190.59;4974157;28;20678;-68
2022/11/10 03:13:27;;;;;;;1.50;1.40;;;10.70;99.90;;;10.99;nan;101183.56;4982124;28;20632;-69
2022/11/10 03:16:10;;;;;;;1.80;1.30;;;10.70;99.90;;;10.87;nan;101192.22;4973655;28;20633;-70
2022/11/10 03:18:37;;;;;;;1.27;1.17;;;10.60;99.90;;;10.66;nan;101193.59;4921162;29;20621;-69
2022/11/10 03:21:05;;;;;;;1.13;1.13;;;10.50;99.90;;;10.78;nan;101193.63;4953572;28;20671;-68
2022/11/10 03:23:35;;;;;;;2.30;1.33;;;10.50;99.90;;;10.84;nan;101200.22;4953641;28;20677;-68
2022/11/10 03:26:06;;;;;;;3.13;1.40;;;10.50;99.90;;;10.73;nan;101200.91;4972045;28;20619;-67
2022/11/10 03:28:34;;;;;;;2.43;1.93;;;10.50;99.90;;;10.65;nan;101208.41;4970145;28;20951;-68
2022/11/10 03:31:04;;;;;;;4.20;2.00;;;10.40;99.90;;;10.75;nan;101217.31;4966328;28;20643;-69
2022/11/10 03:33:31;;;;;;;1.73;1.63;;;10.40;99.90;;;10.65;nan;101213.63;4971688;28;20714;-68
2022/11/10 03:35:57;;;;;;;5.77;2.00;;;10.40;99.90;;;10.65;nan;101216.22;4972030;28;20644;-68
2022/11/10 03:38:24;;;;;;;1.50;1.50;;;10.40;99.90;;;10.64;nan;101226.78;4973606;28;20710;-68
2022/11/10 03:40:51;;;;;;;2.00;1.90;;;10.40;99.90;;;10.64;nan;101226.78;4954544;28;20662;-68
2022/11/10 03:43:38;;;;;;;2.07;1.40;;;10.30;99.90;;;10.53;nan;101237.03;4952941;28;20644;-67
2022/11/10 03:46:05;;;;;;;1.63;1.50;;;10.30;99.90;;;10.49;nan;101246.84;4971499;28;20632;-69
2022/11/10 03:48:32;;;;;;;1.50;1.40;;;10.30;99.90;;;10.42;nan;101247.28;4971229;28;20678;-68
2022/11/10 03:50:59;;;;;;;2.30;1.60;;;10.20;99.90;;;10.30;nan;101246.28;4973059;28;20701;-69
2022/11/10 03:53:26;;;;;;;5.73;1.93;;;10.20;99.90;;;10.33;nan;101253.09;4972179;28;20709;-68
2022/11/10 03:55:53;;;;;;;2.20;2.00;;;10.10;99.90;;;10.27;nan;101251.69;4972358;28;20698;-68
2022/11/10 03:58:20;;;;;;;3.37;2.27;;;10.10;99.90;;;10.21;nan;101262.47;4954655;28;20670;-68
2022/11/10 04:00:47;;;;;;;4.67;1.80;;;10.00;99.90;;;10.30;nan;101272.38;4972545;28;21058;-67
2022/11/10 04:03:14;;;;;;;1.53;1.33;;;10.00;99.90;;;10.25;nan;101266.56;4971554;28;21337;-68
2022/11/10 04:15:40;;;;;;;3.13;2.30;;;9.90;99.90;;;10.23;nan;101278.88;4955582;28;20631;-69
2022/11/10 04:16:45;;;;;;;2.07;1.97;;;9.90;99.90;;;10.21;nan;101295.53;4970945;28;20640;-69
2022/11/10 04:19:12;;;;;;;2.17;1.97;;;9.90;99.90;;;10.16;nan;101295.81;4972094;28;20661;-68
2022/11/10 04:21:39;;;;;;;1.70;1.60;;;9.90;99.90;;;10.13;nan;101296.00;4954904;28;20667;-68
2022/11/10 04:24:07;;;;;;;1.67;1.57;;;9.90;99.90;;;10.12;nan;101296.94;4970903;28;20667;-67
2022/11/10 04:26:37;;;;;;;1.60;1.50;;;9.90;99.90;;;9.93;nan;101298.91;4956744;28;20627;-68
2022/11/10 04:29:09;;;;;;;2.87;1.90;;;9.80;99.90;;;9.89;nan;101310.44;4955511;28;20635;-68
2022/11/10 04:31:40;;;;;;;5.30;1.63;;;9.80;99.90;;;9.90;nan;101310.34;4939120;28;20651;-68
2022/11/10 04:34:11;;;;;;;1.57;1.47;;;9.70;99.90;;;9.90;nan;101312.97;4967669;28;20631;-68
2022/11/10 04:36:41;;;;;;;1.47;1.37;;;9.70;99.90;;;9.83;nan;101316.03;4980701;28;20648;-69
2022/11/10 04:39:09;;;;;;;3.73;1.33;;;9.70;99.90;;;10.01;nan;101315.78;4976283;28;20704;-68
2022/11/10 04:41:37;;;;;;;3.17;1.93;;;9.80;99.90;;;9.85;nan;101319.38;4952249;28;21088;-67
2022/11/10 04:44:04;;;;;;;2.03;1.93;;;9.80;99.90;;;9.99;nan;101317.63;4953205;28;20733;-68
2022/11/10 04:46:38;;;;;;;3.43;1.90;;;9.80;99.90;;;9.97;nan;101313.44;4933660;28;20631;-68
2022/11/10 04:49:06;;;;;;;1.50;1.33;;;9.80;99.90;;;9.92;nan;101320.72;4953578;28;20644;-69
2022/11/10 04:51:36;;;;;;;3.93;1.73;;;9.80;99.90;;;9.85;nan;101328.03;4969731;28;20726;-68
2022/11/10 04:54:06;;;;;;;1.80;1.70;;;9.70;99.90;;;9.83;nan;101331.66;4965058;28;20649;-68
2022/11/10 04:56:33;;;;;;;2.73;1.80;;;9.70;99.90;;;9.76;nan;101330.31;4960570;28;21206;-67
2022/11/10 04:59:01;;;;;;;2.17;1.97;;;9.70;99.90;;;9.70;nan;101330.69;4991295;28;21186;-68
2022/11/10 05:01:28;;;;;;;1.53;1.43;;;9.70;99.90;;;9.63;nan;101324.13;4992050;28;20715;-68
2022/11/10 05:03:55;;;;;;;2.63;1.73;;;9.60;99.90;;;9.80;nan;101321.41;4959137;28;20679;-68
2022/11/10 05:06:23;;;;;;;1.83;1.70;;;9.60;99.90;;;9.76;nan;101320.75;4971269;28;20659;-68
2022/11/10 05:08:50;;;;;;;2.70;2.10;;;9.60;99.90;;;9.77;nan;101321.59;4947135;28;20699;-68
2022/11/10 05:11:17;;;;;;;1.87;1.77;;;9.60;99.90;;;9.84;nan;101328.97;4995677;28;20623;-67
2022/11/10 05:13:45;;;;;;;2.83;2.63;;;9.60;99.90;;;10.01;nan;101330.56;4983049;28;20646;-69
2022/11/10 05:16:13;;;;;;;2.30;1.67;;;9.70;99.90;;;10.05;nan;101332.91;4956597;28;20647;-66
2022/11/10 05:18:40;;;;;;;2.10;1.97;;;9.70;99.90;;;10.03;nan;101342.59;4974965;28;20628;-69
2022/11/10 05:21:08;;;;;;;3.47;2.30;;;9.70;99.90;;;10.05;nan;101347.75;4957979;28;20620;-69
2022/11/10 05:23:37;;;;;;;4.13;3.00;;;9.80;99.90;;;10.11;nan;101342.19;4975733;28;20632;-68
2022/11/10 05:26:13;;;;;;;3.63;2.47;;;9.80;99.90;;;10.00;nan;101348.00;4975455;28;20627;-68
2022/11/10 05:28:43;;;;;;;3.07;2.73;;;9.80;99.90;;;10.12;nan;101354.28;4956996;28;20690;-69
2022/11/10 05:31:12;;;;;;;3.00;2.70;;;9.90;99.90;;;10.07;nan;101357.13;4929018;28;20633;-67
2022/11/10 05:33:39;;;;;;;2.77;2.53;;;9.80;99.90;;;10.18;nan;101373.97;4954749;28;20643;-68
2022/11/10 05:36:07;;;;;;;2.13;1.80;;;9.90;99.90;;;10.26;nan;101374.38;4973543;28;20768;-66
2022/11/10 05:38:34;;;;;;;2.67;1.53;;;9.90;99.90;;;10.20;nan;101382.56;4990260;28;20630;-67
2022/11/10 05:41:07;;;;;;;2.07;1.97;;;9.90;99.90;;;10.24;nan;101387.50;4981139;28;21304;-69
2022/11/10 05:43:34;;;;;;;3.30;2.60;;;9.90;99.90;;;10.14;nan;101394.16;4975266;28;20718;-68
2022/11/10 05:46:02;;;;;;;4.83;2.03;;;9.90;99.90;;;10.16;nan;101407.13;4943358;28;20629;-68
2022/11/10 05:48:29;;;;;;;1.93;1.77;;;9.90;99.90;;;10.08;nan;101410.97;4948079;28;20686;-68
2022/11/10 05:50:55;;;;;;;2.13;1.90;;;9.80;99.90;;;10.16;nan;101423.59;4956372;28;20642;-68
2022/11/10 05:53:22;;;;;;;1.20;1.20;;;9.90;99.90;;;9.83;nan;101425.50;4974093;28;21029;-69
2022/11/10 05:55:50;;;;;;;1.40;1.30;;;9.70;99.90;;;9.77;nan;101425.84;4973839;28;20685;-68
2022/11/10 05:58:17;;;;;;;1.47;1.37;;;9.70;99.90;;;9.59;nan;101426.84;4956554;28;20692;-68
2022/11/10 06:00:44;;;;;;;2.07;1.90;;;9.60;99.90;;;9.68;nan;101428.97;4955384;28;20627;-68
2022/11/10 06:03:18;;;;;;;2.60;1.70;;;9.60;99.90;;;9.55;nan;101431.41;4973675;28;20666;-68
2022/11/10 06:05:45;;;;;;;1.53;1.43;;;9.50;99.90;;;9.68;nan;101437.63;4956210;28;20958;-67
2022/11/10 06:08:12;;;;;;;2.13;1.93;;;9.50;99.90;;;9.75;nan;101444.16;4961892;28;20646;-68
2022/11/10 06:10:39;;;;;;;2.40;2.20;;;9.50;99.90;;;9.68;nan;101449.81;4973111;28;20696;-67
2022/11/10 06:13:06;;;;;;;2.40;2.20;;;9.50;99.90;;;9.77;nan;101457.97;4972543;28;20656;-69
2022/11/10 06:15:33;;;;;;;2.63;1.60;;;9.50;99.90;;;9.76;nan;101450.22;4974577;28;20639;-69
2022/11/10 06:18:01;;;;;;;0.83;0.83;;;9.50;99.90;;;9.73;nan;101437.38;4963031;28;20668;-68
2022/11/10 06:20:28;;;;;;;7.20;1.80;;;9.50;99.90;;;9.47;nan;101444.00;4975124;28;20633;-68
2022/11/10 06:23:04;;;;;;;2.17;2.07;;;9.40;99.90;;;9.34;nan;101451.66;4967245;28;20673;-68
2022/11/10 06:25:35;;;;;;;1.80;1.70;;;9.30;99.90;;;9.39;nan;101456.63;4956474;28;21072;-69
2022/11/10 06:28:03;;;;;;;4.50;1.97;;;9.30;99.90;;;9.42;nan;101479.88;4957298;28;20996;-68
2022/11/10 06:30:32;;;;;;;2.90;2.27;;;9.30;99.90;;;9.45;nan;101491.91;4956971;28;20634;-70
2022/11/10 06:33:00;;;;;;;5.47;2.80;;;9.30;99.90;;;9.59;nan;101495.44;4956626;28;20677;-68
2022/11/10 06:35:28;;;;;;;2.90;2.63;;;9.30;99.90;;;9.50;nan;101510.75;4953373;28;21047;-69
2022/11/10 06:38:00;;;;;;;5.10;2.73;;;9.30;99.90;;;9.61;nan;101508.38;4955882;28;21195;-69
2022/11/10 06:40:29;;;;;;;2.87;2.67;;;9.40;99.90;;;9.70;nan;101513.09;4956047;28;20643;-67
2022/11/10 06:42:56;;;;;;;6.87;2.90;;;9.40;99.90;;;9.72;nan;101509.50;4973285;28;21088;-68
2022/11/10 06:45:27;;;;;;;2.67;1.90;;;9.50;99.90;;;9.92;nan;101521.44;4956489;28;20667;-68
2022/11/10 06:48:13;;;;;;;2.40;2.20;;;9.60;99.90;;;9.88;nan;101535.56;4955401;28;20616;-68
2022/11/10 06:50:40;;;;;;;4.90;2.67;;;9.50;99.90;;;9.78;nan;101539.59;4977280;28;20658;-67
2022/11/10 06:53:09;;;;;;;1.93;1.70;;;9.50;99.90;;;9.82;nan;101551.53;4957387;28;20670;-69
2022/11/10 06:55:36;;;;;;;2.33;2.13;;;9.60;99.90;;;9.87;nan;101552.13;4972118;28;20635;-68
2022/11/10 06:58:03;;;;;;;3.20;2.10;;;9.60;99.90;;;9.70;nan;101557.41;4962828;28;20990;-68
2022/11/10 07:00:30;;;;;;;1.67;1.57;;;9.50;99.90;;;9.70;nan;101567.81;4966631;28;20638;-69
2022/11/10 07:03:06;;;;;;;3.03;1.53;;;9.50;99.90;;;9.55;nan;101566.88;4956791;28;20667;-69
2022/11/10 07:05:35;;;;;;;2.83;2.30;;;9.50;99.90;;;9.64;nan;101570.75;4956845;28;20667;-68
2022/11/10 07:08:15;;;;;;;2.60;1.87;;;9.50;99.90;;;9.73;nan;101578.09;4970182;28;20691;-67
2022/11/10 07:10:44;;;;;;;1.97;1.80;;;9.50;99.90;;;9.69;nan;101581.81;4939475;28;20694;-68
2022/11/10 07:13:11;;;;;;;2.00;1.90;;;9.50;99.90;;;9.87;nan;101573.81;4971333;28;20670;-69
2022/11/10 07:15:38;;;;;;;2.83;1.70;;;9.60;99.90;;;10.22;nan;101590.19;4972989;28;20698;-68
2022/11/10 07:18:05;;;;;;;4.47;2.10;;;9.70;99.90;;;10.73;nan;101584.63;4972483;28;21021;-67
2022/11/10 07:20:33;;;;;;;2.43;1.90;;;10.00;99.90;;;11.50;nan;101581.78;4954628;28;20771;-68
2022/11/10 07:23:05;;;;;;;2.20;2.00;;;10.50;99.90;;;11.96;nan;101585.91;4971162;28;20735;-68
2022/11/10 07:25:36;;;;;;;3.03;2.20;;;10.90;99.90;;;12.63;nan;101584.22;4969001;28;20658;-68
2022/11/10 07:28:06;;;;;;;2.10;1.63;;;11.50;99.90;;;13.35;nan;101589.81;4977478;28;20647;-68
2022/11/10 07:30:34;;;;;;;3.97;2.40;;;12.00;99.90;;;13.77;nan;101586.84;4953711;28;20694;-69
2022/11/10 07:33:08;;;;;;;2.03;1.93;;;12.50;99.90;;;14.40;nan;101580.56;4954361;28;21341;-67
2022/11/10 07:35:35;;;;;;;2.70;2.10;;;13.00;99.90;;;15.16;nan;101586.22;4954983;28;20639;-68
2022/11/10 07:38:11;;;;;;;4.60;2.50;;;13.50;99.90;;;15.41;nan;101592.13;4976415;28;21214;-66
2022/11/10 07:40:38;;;;;;;3.83;2.50;;;14.00;99.90;;;16.09;nan;101601.72;4955777;28;20647;-69
2022/11/10 07:43:05;;;;;;;3.40;2.43;;;14.50;99.90;;;17.04;nan;101605.22;4935590;28;20705;-69
2022/11/10 07:45:32;;;;;;;4.13;2.80;;;15.00;99.90;;;17.87;nan;101610.41;4982391;28;21251;-67
2022/11/10 07:48:01;;;;;;;5.60;2.37;;;15.60;99.90;;;19.13;nan;101611.28;4987073;28;20698;-67
2022/11/10 07:50:28;;;;;;;4.60;2.63;;;16.50;99.90;;;20.13;nan;101626.44;4953545;28;20638;-68
2022/11/10 07:53:09;;;;;;;8.10;2.80;;;17.40;99.90;;;20.65;nan;101642.59;4955808;28;20675;-68
2022/11/10 07:55:38;;;;;;;3.33;2.37;;;18.20;99.90;;;22.56;nan;101642.28;4967134;28;20639;-68
2022/11/10 07:58:05;;;;;;;7.50;2.60;;;19.20;99.90;;;21.06;nan;101635.88;4974433;28;20633;-68
2022/11/10 08:00:33;;;;;;;2.60;2.23;;;19.70;99.90;;;23.71;nan;101651.78;4955951;28;20877;-67
2022/11/10 08:03:10;;;;;;;2.77;2.57;;;20.60;99.90;;;23.81;nan;101655.09;4955160;28;20690;-68
2022/11/10 08:05:37;;;;;;;4.20;2.40;;;21.00;99.90;;;24.93;nan;101666.22;4954279;28;21080;-68
2022/11/10 08:08:04;;;;;;;5.80;3.17;;;22.00;97.40;;;26.81;nan;101663.78;4972186;28;20682;-71
2022/11/10 08:10:33;;;;;;;4.13;2.90;;;23.00;95.60;;;27.48;nan;101669.53;4937387;28;21063;-68
2022/11/10 08:13:03;;;;;;;3.67;2.70;;;23.70;93.20;;;28.27;nan;101668.13;4955168;28;21217;-68
2022/11/10 08:15:33;;;;;;;5.63;3.00;;;24.30;90.90;;;29.56;nan;101665.84;4955854;28;21050;-68
2022/11/10 08:18:17;;;;;;;3.70;2.33;;;25.10;88.20;;;30.94;nan;101673.38;4938412;28;20643;-67
2022/11/10 08:20:44;;;;;;;7.47;2.47;;;26.30;81.80;;;32.13;nan;101678.28;4970876;28;20632;-68
2022/11/10 08:23:12;;;;;;;2.73;2.43;;;27.30;77.50;;;33.13;nan;101675.81;4970841;28;21319;-68
2022/11/10 08:25:39;;;;;;;3.47;2.70;;;28.00;73.10;;;33.90;nan;101680.88;4953815;28;20676;-68
2022/11/10 08:28:15;;;;;;;3.77;3.00;;;28.90;69.10;;;34.29;nan;101676.53;4954283;28;21055;-68
2022/11/10 08:30:44;;;;;;;3.13;2.93;;;29.50;66.70;;;35.39;nan;101685.84;4955118;28;20632;-68
2022/11/10 08:33:15;;;;;;;3.17;2.90;;;30.10;64.70;;;36.76;nan;101689.22;4981939;28;20655;-69
2022/11/10 08:35:45;;;;;;;3.23;3.00;;;30.90;61.90;;;37.83;nan;101697.97;4979957;28;20655;-69
2022/11/10 08:38:21;;;;;;;5.90;3.40;;;31.60;60.00;;;38.92;nan;101694.19;4967318;28;20636;-69
2022/11/10 08:40:48;;;;;;;3.60;3.10;;;32.30;58.10;;;39.68;nan;101694.97;4967623;28;20631;-69
2022/11/10 08:43:16;;;;;;;3.17;2.90;;;33.20;56.50;;;40.58;nan;101686.31;4969840;28;20715;-68
2022/11/10 08:45:44;;;;;;;3.10;2.90;;;33.90;54.30;;;40.70;nan;101689.50;4954108;28;20741;-66
2022/11/10 08:48:17;;;;;;;3.70;3.43;;;34.30;53.40;;;40.93;nan;101694.28;4971538;28;20623;-67
2022/11/10 08:50:46;;;;;;;4.23;3.93;;;34.70;52.10;;;40.78;nan;101686.19;4971777;28;20991;-67
2022/11/10 08:53:16;;;;;;;4.73;3.00;;;34.80;51.10;;;40.54;nan;101690.72;4949431;28;21031;-69
2022/11/10 08:55:45;;;;;;;3.10;2.80;;;34.70;51.10;;;40.27;nan;101699.34;4985354;28;21050;-66
2022/11/10 08:58:22;;;;;;;3.03;2.30;;;34.50;50.80;;;39.74;nan;101699.31;4983294;28;20779;-68
2022/11/10 09:00:50;;;;;;;3.13;2.43;;;34.10;50.40;;;37.10;nan;101698.00;4971299;28;20631;-67
2022/11/10 09:03:20;;;;;;;2.73;2.63;;;32.80;51.40;;;32.60;nan;101679.34;4954134;28;20655;-66
2022/11/10 09:05:49;;;;;;;6.67;2.57;;;30.50;71.50;;;30.04;nan;101679.84;4959337;28;20681;-66
2022/11/10 09:08:22;;;;;;;4.40;2.17;;;28.20;56.30;;;28.60;nan;101684.38;4971050;28;20637;-70
2022/11/10 09:10:50;;;;;;;2.57;2.30;;;26.40;59.10;;;29.88;nan;101680.28;4970190;28;20632;-67
2022/11/10 09:13:20;;;;;;;2.20;2.10;;;26.10;60.50;;;31.98;nan;101693.19;4969999;28;20663;-66
2022/11/10 09:15:52;;;;;;;3.90;2.60;;;26.80;60.00;;;34.16;nan;101707.44;4953888;28;20627;-67
2022/11/10 09:18:19;;;;;;;4.43;2.70;;;28.00;59.00;;;35.81;nan;101716.06;4970961;28;20649;-68
2022/11/10 09:20:45;;;;;;;2.03;1.90;;;29.20;57.10;;;36.04;nan;101724.00;4957927;28;21249;-66
2022/11/10 09:23:16;;;;;;;4.70;2.00;;;30.00;55.60;;;36.60;nan;101728.22;4970215;28;21313;-66
2022/11/10 09:25:53;;;;;;;3.10;2.00;;;30.80;54.50;;;35.54;nan;101726.00;4953148;28;21231;-66
2022/11/10 09:28:21;;;;;;;2.30;2.10;;;31.00;53.90;;;37.38;nan;101737.69;4962242;28;21033;-67
2022/11/10 09:30:50;;;;;;;2.27;2.07;;;31.60;53.80;;;37.93;nan;101741.59;4953665;28;20678;-66
2022/11/10 09:33:18;;;;;;;1.83;1.70;;;32.00;53.50;;;36.83;nan;101737.97;4969392;28;20722;-67
2022/11/10 09:35:45;;;;;;;2.63;1.60;;;31.80;52.70;;;37.75;nan;101739.28;4953512;28;20647;-66
2022/11/10 09:38:12;;;;;;;3.97;1.80;;;32.30;52.10;;;39.16;nan;101752.63;4968786;28;20644;-68
2022/11/10 09:40:54;;;;;;;1.70;1.60;;;32.90;51.80;;;39.18;nan;101754.00;4969351;28;20639;-67
2022/11/10 09:43:55;;;;;;;2.13;1.93;;;33.20;51.10;;;38.76;nan;101745.22;4977908;28;21096;-68
2022/11/10 09:46:30;;;;;;;2.87;1.87;;;33.50;50.60;;;38.19;nan;101749.88;4932333;28;20683;-68
2022/11/10 09:49:20;;;;;;;3.80;1.50;;;33.40;50.40;;;37.26;nan;101743.28;4963713;28;20635;-67
2022/11/10 09:51:47;;;;;;;2.33;1.90;;;33.00;50.40;;;35.42;nan;101745.03;4961402;28;20678;-65
2022/11/10 09:54:33;;;;;;;3.00;1.70;;;31.90;51.10;;;33.77;nan;101748.00;4973551;28;21290;-68
2022/11/10 09:57:02;;;;;;;2.33;1.87;;;31.50;51.40;;;37.11;nan;101754.03;4955940;28;20694;-67
2022/11/10 09:59:32;;;;;;;2.07;1.60;;;32.00;51.80;;;38.06;nan;101753.91;4957326;28;20973;-67
2022/11/10 10:02:29;;;;;;;1.53;1.43;;;32.60;51.00;;;38.44;nan;101750.00;4956986;28;20698;-67
2022/11/10 10:05:52;;;;;;;2.60;1.80;;;33.40;50.30;;;37.86;nan;101751.94;4971551;28;20685;-68
2022/11/10 10:08:27;;;;;;;3.50;1.80;;;33.50;49.60;;;39.03;nan;101756.69;4962117;28;20661;-67
2022/11/10 10:11:34;;;;;;;2.57;2.03;;;33.80;49.80;;;39.57;nan;101753.44;4958340;28;20632;-67
2022/11/10 10:14:39;;;;;;;2.13;1.57;;;34.00;49.70;;;38.54;nan;101752.75;4936291;28;20636;-70
2022/11/10 10:17:41;;;;;;;1.57;1.47;;;33.80;49.10;;;34.73;nan;101743.56;4971774;28;20637;-68
2022/11/10 10:20:35;;;;;;;2.23;1.60;;;33.00;49.00;;;29.41;nan;101745.09;4954694;28;20686;-69
2022/11/10 10:23:45;;;;;;;3.07;2.10;;;29.00;53.10;;;24.96;nan;101740.66;4955899;28;21257;-67
2022/11/10 10:26:44;;;;;;;2.90;1.40;;;25.70;57.90;;;22.80;nan;101736.34;4970894;28;20647;-69
2022/11/10 10:29:38;;;;;;;2.07;1.70;;;23.20;63.50;;;21.48;nan;101735.94;4939798;28;20636;-67
2022/11/10 10:32:11;;;;;;;4.20;1.60;;;21.70;67.40;;;19.34;nan;101739.00;4956304;28;20659;-67
2022/11/10 10:34:40;;;;;;;0.80;0.80;;;19.90;72.20;;;18.27;nan;101738.03;4973775;28;20697;-66
2022/11/10 10:37:45;;;;;;;3.87;2.10;;;18.60;76.50;;;18.06;nan;101747.81;4957142;28;20771;-67
2022/11/10 10:40:19;;;;;;;3.57;1.73;;;17.90;83.30;;;17.65;nan;101743.41;4956988;28;20631;-66
2022/11/10 10:42:47;;;;;;;2.03;1.60;;;17.40;92.30;;;17.11;nan;101744.47;4955806;28;21320;-66
2022/11/10 10:45:19;;;;;;;5.10;1.83;;;16.90;98.40;;;17.21;nan;101740.97;4954289;28;21233;-68
2022/11/10 10:47:50;;;;;;;3.63;1.80;;;16.70;99.90;;;17.15;nan;101748.53;4973179;28;20693;-67
2022/11/10 10:50:32;;;;;;;1.63;1.53;;;16.60;99.90;;;16.97;nan;101743.78;4974282;28;20632;-66
2022/11/10 10:53:17;;;;;;;1.73;0.90;;;16.40;99.90;;;16.56;nan;101740.19;4957581;28;20724;-66
2022/11/10 10:56:06;;;;;;;10.37;1.30;;;16.20;99.90;;;16.13;nan;101742.69;4939777;28;20685;-66
2022/11/10 10:58:55;;;;;;;3.23;1.23;;;15.90;99.90;;;15.87;nan;101744.69;4955861;28;20638;-66